Time;durP1;ratioP1;P1;durP2;ratioP2;P2;SDS_P1;SDS_P2;PMS_P1;PMS_P2;Temp;Humidity;BMP_temperature;BMP_pressure;BME280_temperature;BME280_humidity;BME280_pressure;Samples;Min_cycle;Max_cycle;Signal;HPM_P1;HPM_P2
2023/10/04 00:00:15;;;;;;;13.02;3.58;;;12.30;99.90;;;;;;5073511;28;20093;-70
2023/10/04 00:02:44;;;;;;;10.75;3.17;;;12.30;99.90;;;;;;5073231;28;20044;-70
2023/10/04 00:05:14;;;;;;;12.02;2.75;;;12.20;99.90;;;;;;5073811;28;20079;-70
2023/10/04 00:07:42;;;;;;;10.80;2.97;;;12.20;99.90;;;;;;5073790;28;20048;-70
2023/10/04 00:10:10;;;;;;;10.88;2.72;;;12.20;99.90;;;;;;5073445;28;20048;-70
2023/10/04 00:12:37;;;;;;;9.10;2.60;;;12.10;99.90;;;;;;5073427;28;20044;-70
2023/10/04 00:15:05;;;;;;;8.93;2.72;;;12.10;99.90;;;;;;5076359;28;20039;-69
2023/10/04 00:17:34;;;;;;;10.52;3.05;;;12.10;99.90;;;;;;5077633;28;20059;-70
2023/10/04 00:20:03;;;;;;;18.75;3.72;;;12.10;99.90;;;;;;5077420;28;20048;-70
2023/10/04 00:22:30;;;;;;;12.65;3.30;;;12.00;99.90;;;;;;5095269;28;20048;-70
2023/10/04 00:24:57;;;;;;;12.40;3.40;;;12.10;99.90;;;;;;5095361;28;20044;-70
2023/10/04 00:27:23;;;;;;;22.60;3.17;;;12.00;99.90;;;;;;5077481;28;20051;-69
2023/10/04 00:29:50;;;;;;;11.52;3.17;;;12.00;99.90;;;;;;5076604;28;20522;-70
2023/10/04 00:32:17;;;;;;;13.55;3.25;;;12.00;99.90;;;;;;5095336;28;20048;-70
2023/10/04 00:34:45;;;;;;;14.60;3.33;;;12.00;99.90;;;;;;5077044;28;20048;-70
2023/10/04 00:37:15;;;;;;;13.77;3.60;;;12.00;99.90;;;;;;5076758;28;20427;-70
2023/10/04 00:39:42;;;;;;;11.20;2.55;;;12.00;99.90;;;;;;5077157;28;20048;-70
2023/10/04 00:42:09;;;;;;;19.55;2.92;;;12.00;99.90;;;;;;5077142;28;20097;-69
2023/10/04 00:44:37;;;;;;;8.35;2.75;;;12.00;99.90;;;;;;5076625;28;20123;-70
2023/10/04 00:47:07;;;;;;;16.33;2.92;;;12.00;99.90;;;;;;5077157;28;20056;-69
2023/10/04 00:49:35;;;;;;;14.63;3.97;;;12.00;99.90;;;;;;5077037;28;20055;-69
2023/10/04 00:52:08;;;;;;;14.02;2.70;;;12.00;99.90;;;;;;5072170;28;20044;-70
2023/10/04 00:54:35;;;;;;;12.18;2.80;;;11.90;99.90;;;;;;5076553;28;20047;-70
2023/10/04 00:57:02;;;;;;;8.65;2.70;;;12.00;99.90;;;;;;5076657;28;20076;-70
2023/10/04 00:59:29;;;;;;;13.82;3.15;;;11.90;99.90;;;;;;5076163;28;20048;-70
2023/10/04 01:01:56;;;;;;;11.57;3.33;;;11.90;99.90;;;;;;5076877;28;20105;-69
2023/10/04 01:04:26;;;;;;;10.98;3.00;;;11.90;99.90;;;;;;5076205;28;20400;-69
2023/10/04 01:06:54;;;;;;;8.70;2.90;;;11.90;99.90;;;;;;5076818;28;20389;-69
2023/10/04 01:09:23;;;;;;;17.27;3.50;;;11.80;99.90;;;;;;5076103;28;20097;-70
2023/10/04 01:11:50;;;;;;;19.35;3.50;;;11.80;99.90;;;;;;5093724;28;20092;-69
2023/10/04 01:14:23;;;;;;;9.10;2.45;;;11.80;99.90;;;;;;5076657;28;20087;-68
2023/10/04 01:16:52;;;;;;;11.98;3.42;;;11.80;99.90;;;;;;5073582;28;20450;-69
2023/10/04 01:19:20;;;;;;;10.70;2.58;;;11.70;99.90;;;;;;5073161;28;20432;-69
2023/10/04 01:21:47;;;;;;;13.80;2.65;;;11.70;99.90;;;;;;5076178;28;20075;-69
2023/10/04 01:24:16;;;;;;;6.03;2.03;;;11.70;99.90;;;;;;5076406;28;20396;-69
2023/10/04 01:26:43;;;;;;;12.05;2.70;;;11.70;99.90;;;;;;5092957;28;20043;-69
2023/10/04 01:29:12;;;;;;;15.73;3.70;;;11.60;99.90;;;;;;5076296;28;20055;-69
2023/10/04 01:31:39;;;;;;;8.63;2.55;;;11.60;99.90;;;;;;5076066;28;20051;-69
2023/10/04 01:34:06;;;;;;;7.78;2.92;;;11.60;99.90;;;;;;5075772;28;20052;-69
2023/10/04 01:36:36;;;;;;;9.60;2.70;;;11.60;99.90;;;;;;5093996;28;20384;-69
2023/10/04 01:39:07;;;;;;;13.15;3.33;;;11.60;99.90;;;;;;5094044;28;20048;-69
2023/10/04 01:41:37;;;;;;;;;;;11.60;99.90;;;;;;5072451;28;20408;-69
2023/10/04 01:44:09;;;;;;;9.38;3.25;;;11.60;99.90;;;;;;5075803;28;20441;-69
2023/10/04 01:46:37;;;;;;;9.75;3.20;;;11.60;99.90;;;;;;5075186;28;20052;-69
2023/10/04 01:49:05;;;;;;;18.40;3.53;;;11.60;99.90;;;;;;5076034;28;20545;-69
2023/10/04 01:51:32;;;;;;;11.73;3.53;;;11.70;99.90;;;;;;5075525;28;20075;-69
2023/10/04 01:54:00;;;;;;;20.15;3.30;;;11.70;99.90;;;;;;5075281;28;20044;-68
2023/10/04 01:56:27;;;;;;;15.05;3.05;;;11.60;99.90;;;;;;5075771;28;20058;-69
2023/10/04 01:58:56;;;;;;;17.17;3.50;;;11.70;99.90;;;;;;5075859;28;20051;-68
2023/10/04 02:01:23;;;;;;;15.98;3.25;;;11.70;99.90;;;;;;5074885;28;20043;-70
2023/10/04 02:03:49;;;;;;;9.18;2.45;;;11.60;99.90;;;;;;5075748;28;20048;-69
2023/10/04 02:06:16;;;;;;;11.00;3.20;;;11.60;99.90;;;;;;5075492;28;20047;-70
2023/10/04 02:08:45;;;;;;;12.35;2.97;;;11.60;99.90;;;;;;5074944;28;20059;-70
2023/10/04 02:11:13;;;;;;;12.93;3.38;;;11.60;99.90;;;;;;5093703;28;20446;-69
2023/10/04 02:13:40;;;;;;;11.68;3.17;;;11.60;99.90;;;;;;5075471;28;20043;-69
2023/10/04 02:16:18;;;;;;;9.38;2.20;;;11.60;99.90;;;;;;5070451;28;20072;-69
2023/10/04 02:18:47;;;;;;;13.15;2.97;;;11.60;99.90;;;;;;5074893;28;20048;-69
2023/10/04 02:21:15;;;;;;;9.40;2.97;;;11.50;99.90;;;;;;5075139;28;20134;-70
2023/10/04 02:23:42;;;;;;;11.98;2.83;;;11.50;99.90;;;;;;5074612;28;20040;-69
2023/10/04 02:26:09;;;;;;;13.52;3.45;;;11.50;99.90;;;;;;5075207;28;20476;-69
2023/10/04 02:28:36;;;;;;;12.88;3.42;;;11.50;99.90;;;;;;5074909;28;20047;-69
2023/10/04 02:31:03;;;;;;;16.58;3.28;;;11.50;99.90;;;;;;5092352;28;20040;-69
2023/10/04 02:33:38;;;;;;;12.30;2.85;;;11.50;99.90;;;;;;5074713;28;20052;-70
2023/10/04 02:36:06;;;;;;;14.43;3.13;;;11.50;99.90;;;;;;5074256;28;20043;-69
2023/10/04 02:38:36;;;;;;;10.48;2.60;;;11.50;99.90;;;;;;5074026;28;20500;-69
2023/10/04 02:41:05;;;;;;;16.17;3.42;;;11.50;99.90;;;;;;5074658;28;20047;-69
2023/10/04 02:43:32;;;;;;;9.20;2.30;;;11.50;99.90;;;;;;5070279;28;20078;-69
2023/10/04 02:45:59;;;;;;;16.30;2.67;;;11.50;99.90;;;;;;5092494;28;20446;-70
2023/10/04 02:48:27;;;;;;;9.65;2.72;;;11.50;99.90;;;;;;5074839;28;20047;-70
2023/10/04 02:50:56;;;;;;;19.70;3.33;;;11.50;99.90;;;;;;5091866;28;20090;-70
2023/10/04 02:53:24;;;;;;;10.05;3.17;;;11.60;99.90;;;;;;5074770;28;20047;-70
2023/10/04 02:55:54;;;;;;;11.18;2.70;;;11.60;99.90;;;;;;5074231;28;20083;-70
2023/10/04 02:58:22;;;;;;;11.17;3.00;;;11.60;99.90;;;;;;5073995;28;20043;-69
2023/10/04 03:00:50;;;;;;;9.63;3.17;;;11.70;99.90;;;;;;5074547;28;20286;-69
2023/10/04 03:03:24;;;;;;;7.70;2.95;;;11.70;99.90;;;;;;5074638;28;20404;-70
2023/10/04 03:05:54;;;;;;;14.20;3.20;;;11.80;99.90;;;;;;5069453;28;20087;-70
2023/10/04 03:08:23;;;;;;;9.82;2.42;;;11.80;99.90;;;;;;5074407;28;20470;-70
2023/10/04 03:10:51;;;;;;;12.65;2.90;;;11.80;99.90;;;;;;5074347;28;20147;-70
2023/10/04 03:13:24;;;;;;;9.90;2.40;;;11.80;99.90;;;;;;5073878;28;20109;-69
2023/10/04 03:15:51;;;;;;;16.17;3.30;;;11.80;99.90;;;;;;5073903;28;20043;-70
2023/10/04 03:18:20;;;;;;;11.30;2.97;;;11.80;99.90;;;;;;5073989;28;20135;-69
2023/10/04 03:21:09;;;;;;;10.30;3.15;;;11.80;99.90;;;;;;5073866;28;20055;-69
2023/10/04 03:23:40;;;;;;;12.80;2.92;;;11.80;99.90;;;;;;5074034;28;20059;-69
2023/10/04 03:26:12;;;;;;;12.05;2.70;;;11.80;99.90;;;;;;5073674;28;20048;-70
2023/10/04 03:28:38;;;;;;;15.38;3.40;;;11.80;99.90;;;;;;5070889;28;20055;-69
2023/10/04 03:31:10;;;;;;;13.63;2.90;;;11.70;99.90;;;;;;5073755;28;20044;-69
2023/10/04 03:33:37;;;;;;;19.83;3.08;;;11.60;99.90;;;;;;5073787;28;20048;-70
2023/10/04 03:36:05;;;;;;;17.48;3.30;;;11.60;99.90;;;;;;5073799;28;20044;-70
2023/10/04 03:38:33;;;;;;;14.48;3.63;;;11.60;99.90;;;;;;5074193;28;20179;-70
2023/10/04 03:41:03;;;;;;;10.32;3.00;;;11.50;99.90;;;;;;5073518;28;20517;-69
2023/10/04 03:43:30;;;;;;;11.60;3.05;;;11.60;99.90;;;;;;5074267;28;20067;-69
2023/10/04 03:45:57;;;;;;;10.13;2.58;;;11.60;99.90;;;;;;5073901;28;20089;-70
2023/10/04 03:48:24;;;;;;;13.68;3.05;;;11.70;99.90;;;;;;5073718;28;20075;-70
2023/10/04 03:50:53;;;;;;;14.88;2.95;;;11.70;99.90;;;;;;5078170;28;20063;-69
2023/10/04 03:53:21;;;;;;;14.13;3.40;;;11.80;99.90;;;;;;5077488;28;20148;-70
2023/10/04 03:55:48;;;;;;;13.02;2.90;;;11.80;99.90;;;;;;5077817;28;20056;-70
2023/10/04 03:58:19;;;;;;;12.02;3.30;;;11.80;99.90;;;;;;5078036;28;20051;-70
2023/10/04 04:00:46;;;;;;;;;;;11.90;99.90;;;;;;5073645;28;20054;-70
2023/10/04 04:03:13;;;;;;;11.95;3.20;;;11.90;99.90;;;;;;5077669;28;19920;-70
2023/10/04 04:05:41;;;;;;;14.30;3.00;;;11.90;99.90;;;;;;5077934;28;20067;-69
2023/10/04 04:08:08;;;;;;;14.45;3.78;;;11.80;99.90;;;;;;5095086;28;21296;-69
2023/10/04 04:10:36;;;;;;;16.05;3.00;;;11.80;99.90;;;;;;5077793;28;20072;-70
2023/10/04 04:13:04;;;;;;;10.55;3.20;;;11.80;99.90;;;;;;5095718;28;20067;-70
2023/10/04 04:15:35;;;;;;;12.80;2.97;;;11.70;99.90;;;;;;5095170;28;20044;-69
2023/10/04 04:18:06;;;;;;;17.13;4.15;;;11.70;99.90;;;;;;5077499;28;20044;-70
2023/10/04 04:20:35;;;;;;;9.45;3.25;;;11.60;99.90;;;;;;5077284;28;20058;-70
2023/10/04 04:23:04;;;;;;;8.88;3.03;;;11.60;99.90;;;;;;5077048;28;20086;-69
2023/10/04 04:25:32;;;;;;;13.80;3.03;;;11.50;99.90;;;;;;5077640;28;20127;-69
2023/10/04 04:28:01;;;;;;;11.77;3.33;;;11.50;99.90;;;;;;5077416;28;20429;-69
2023/10/04 04:30:31;;;;;;;8.05;3.03;;;11.50;99.90;;;;;;5076857;28;20051;-70
2023/10/04 04:33:03;;;;;;;13.43;2.97;;;11.50;99.90;;;;;;5095326;28;20063;-70
2023/10/04 04:35:40;;;;;;;12.55;3.17;;;11.50;99.90;;;;;;5076581;28;20415;-69
2023/10/04 04:38:13;;;;;;;8.25;2.72;;;11.50;99.90;;;;;;5076877;28;20044;-70
2023/10/04 04:40:44;;;;;;;8.27;3.00;;;11.40;99.90;;;;;;5077298;28;20462;-69
2023/10/04 04:43:23;;;;;;;;;;;11.40;99.90;;;;;;5073659;28;20048;-69
2023/10/04 04:45:51;;;;;;;7.72;3.10;;;11.40;99.90;;;;;;5077228;28;19919;-69
2023/10/04 04:48:23;;;;;;;9.07;2.58;;;11.40;99.90;;;;;;5073002;28;20051;-70
2023/10/04 04:50:51;;;;;;;10.55;3.22;;;11.40;99.90;;;;;;5076375;28;20104;-70
2023/10/04 04:53:21;;;;;;;17.85;3.00;;;11.40;99.90;;;;;;5076813;28;20055;-70
2023/10/04 04:55:48;;;;;;;14.53;2.97;;;11.40;99.90;;;;;;5095124;28;20072;-70
2023/10/04 04:58:18;;;;;;;10.52;3.38;;;11.40;99.90;;;;;;5076262;28;20309;-69
2023/10/04 05:00:49;;;;;;;10.25;2.47;;;11.40;99.90;;;;;;5075625;28;20048;-69
2023/10/04 05:03:17;;;;;;;11.73;3.20;;;11.40;99.90;;;;;;5073422;28;20054;-69
2023/10/04 05:05:49;;;;;;;14.10;2.90;;;11.40;99.90;;;;;;5075923;28;20051;-69
2023/10/04 05:08:16;;;;;;;9.75;2.78;;;11.40;99.90;;;;;;5076571;28;20055;-69
2023/10/04 05:10:44;;;;;;;9.80;3.33;;;11.40;99.90;;;;;;5076138;28;20056;-69
2023/10/04 05:13:13;;;;;;;10.23;2.90;;;11.40;99.90;;;;;;5076429;28;20059;-69
2023/10/04 05:15:42;;;;;;;11.45;2.75;;;11.40;99.90;;;;;;5076417;28;20089;-70
2023/10/04 05:18:12;;;;;;;12.77;3.17;;;11.40;99.90;;;;;;5075956;28;20097;-69
2023/10/04 05:20:41;;;;;;;13.00;3.83;;;11.40;99.90;;;;;;5076111;28;20052;-70
2023/10/04 05:23:10;;;;;;;14.63;3.25;;;11.40;99.90;;;;;;5076454;28;20416;-69
2023/10/04 05:25:37;;;;;;;9.13;2.90;;;11.40;99.90;;;;;;5075896;28;20051;-68
2023/10/04 05:28:05;;;;;;;12.52;3.28;;;11.40;99.90;;;;;;5066957;28;20068;-68
2023/10/04 05:30:32;;;;;;;16.73;3.92;;;11.40;99.90;;;;;;5062038;28;20055;-69
2023/10/04 05:32:59;;;;;;;11.93;2.50;;;11.40;99.90;;;;;;5071875;28;20055;-69
2023/10/04 05:35:27;;;;;;;10.48;3.40;;;11.50;99.90;;;;;;5072572;28;20048;-69
2023/10/04 05:37:53;;;;;;;8.07;3.00;;;11.50;99.90;;;;;;5070990;28;20105;-68
2023/10/04 05:40:26;;;;;;;13.63;2.78;;;11.50;99.90;;;;;;5067827;28;20052;-69
2023/10/04 05:42:54;;;;;;;11.30;3.38;;;11.50;99.90;;;;;;5089256;28;20499;-69
2023/10/04 05:45:21;;;;;;;12.73;2.83;;;11.50;99.90;;;;;;5066723;28;20475;-68
2023/10/04 05:47:50;;;;;;;8.38;2.80;;;11.60;99.90;;;;;;5073594;28;20513;-68
2023/10/04 05:50:20;;;;;;;11.38;2.72;;;11.60;99.90;;;;;;5072333;28;20044;-68
2023/10/04 05:52:48;;;;;;;10.45;2.95;;;11.60;99.90;;;;;;5071885;28;20533;-69
2023/10/04 05:55:16;;;;;;;13.82;3.53;;;11.60;99.90;;;;;;5085965;28;20050;-69
2023/10/04 05:57:46;;;;;;;9.32;3.15;;;11.60;99.90;;;;;;5070928;28;20446;-69
2023/10/04 06:00:24;;;;;;;12.65;2.80;;;11.50;99.90;;;;;;5068432;28;20096;-68
2023/10/04 06:02:53;;;;;;;7.40;3.00;;;11.60;99.90;;;;;;5070862;28;20048;-69
2023/10/04 06:05:22;;;;;;;12.43;3.45;;;11.60;99.90;;;;;;5073194;28;20119;-68
2023/10/04 06:07:49;;;;;;;15.32;3.33;;;11.60;99.90;;;;;;5088654;28;20438;-68
2023/10/04 06:10:18;;;;;;;12.32;2.83;;;11.60;99.90;;;;;;5072116;28;20442;-68
2023/10/04 06:12:47;;;;;;;7.85;2.75;;;11.60;99.90;;;;;;5086582;28;20110;-68
2023/10/04 06:15:16;;;;;;;13.02;3.40;;;11.60;99.90;;;;;;5088456;28;20040;-69
2023/10/04 06:17:44;;;;;;;11.45;3.50;;;11.60;99.90;;;;;;5073544;28;20080;-69
2023/10/04 06:20:28;;;;;;;15.13;3.58;;;11.70;99.90;;;;;;5057267;28;20064;-69
2023/10/04 06:22:57;;;;;;;14.18;3.55;;;11.70;99.90;;;;;;5052556;28;20127;-76
2023/10/04 06:25:25;;;;;;;9.77;2.95;;;11.80;99.90;;;;;;5070706;28;20055;-69
2023/10/04 06:27:57;;;;;;;10.98;3.28;;;11.90;99.90;;;;;;5049621;28;20106;-69
2023/10/04 06:30:27;;;;;;;8.95;3.08;;;11.90;99.90;;;;;;5068116;28;20040;-69
2023/10/04 06:32:55;;;;;;;16.97;4.17;;;12.00;99.90;;;;;;5043804;28;20135;-68
2023/10/04 06:35:23;;;;;;;13.55;3.30;;;12.10;99.90;;;;;;5045406;28;20287;-68
2023/10/04 06:37:51;;;;;;;11.50;3.70;;;12.10;99.90;;;;;;5049297;28;20052;-68
2023/10/04 06:40:20;;;;;;;12.63;3.38;;;12.20;99.90;;;;;;5044851;28;20560;-68
2023/10/04 06:42:48;;;;;;;10.07;3.30;;;12.30;99.90;;;;;;5048972;28;20070;-68
2023/10/04 06:45:17;;;;;;;10.25;3.90;;;12.40;99.90;;;;;;5051068;28;20072;-69
2023/10/04 06:47:46;;;;;;;11.85;3.65;;;12.40;99.90;;;;;;5049391;28;20048;-69
2023/10/04 06:50:18;;;;;;;12.88;3.38;;;12.50;99.90;;;;;;5048159;28;20539;-68
2023/10/04 06:52:47;;;;;;;12.27;3.38;;;12.60;99.90;;;;;;5048250;28;20132;-69
2023/10/04 06:55:14;;;;;;;11.52;3.80;;;12.90;99.90;;;;;;5046468;28;20402;-68
2023/10/04 06:57:42;;;;;;;17.38;4.20;;;13.10;99.90;;;;;;5048134;28;20080;-68
2023/10/04 07:00:14;;;;;;;7.63;2.70;;;13.30;99.90;;;;;;5066679;28;20123;-68
2023/10/04 07:02:47;;;;;;;12.60;3.65;;;13.40;99.90;;;;;;5049833;28;20056;-67
2023/10/04 07:05:18;;;;;;;12.27;3.47;;;13.80;99.90;;;;;;5050190;28;20052;-69
2023/10/04 07:07:46;;;;;;;11.02;4.25;;;14.30;99.90;;;;;;5046855;28;20048;-68
2023/10/04 07:10:15;;;;;;;13.65;3.90;;;15.10;99.90;;;;;;5049689;28;20056;-67
2023/10/04 07:12:43;;;;;;;11.48;3.38;;;15.70;99.90;;;;;;5048147;28;20721;-68
2023/10/04 07:15:12;;;;;;;7.35;2.88;;;16.30;99.90;;;;;;5049964;28;20055;-69
2023/10/04 07:17:40;;;;;;;10.15;3.35;;;16.90;99.90;;;;;;5063103;28;20063;-70
2023/10/04 07:20:14;;;;;;;13.27;3.33;;;17.40;99.90;;;;;;5062690;28;20056;-71
2023/10/04 07:22:43;;;;;;;10.82;3.25;;;18.00;99.90;;;;;;5067665;28;20081;-70
2023/10/04 07:25:12;;;;;;;9.45;3.42;;;18.50;99.90;;;;;;5067051;28;20123;-71
2023/10/04 07:27:40;;;;;;;8.07;3.38;;;18.90;99.90;;;;;;5068648;28;20076;-68
2023/10/04 07:30:12;;;;;;;8.07;3.30;;;19.10;99.90;;;;;;5071309;28;20086;-69
2023/10/04 07:32:40;;;;;;;13.32;3.33;;;19.50;99.90;;;;;;5066974;28;20087;-69
2023/10/04 07:35:09;;;;;;;11.35;4.25;;;19.40;99.90;;;;;;5067955;28;20127;-69
2023/10/04 07:37:36;;;;;;;10.00;2.95;;;19.80;99.90;;;;;;5069423;28;20048;-68
2023/10/04 07:40:09;;;;;;;6.70;2.53;;;20.00;99.90;;;;;;5069815;28;20048;-68
2023/10/04 07:42:36;;;;;;;12.75;3.10;;;20.50;99.90;;;;;;5073048;28;20090;-68
2023/10/04 07:45:03;;;;;;;13.57;3.05;;;21.00;99.90;;;;;;5069283;28;20385;-69
2023/10/04 07:47:31;;;;;;;6.68;2.97;;;20.80;99.90;;;;;;5058197;28;20041;-68
2023/10/04 07:49:58;;;;;;;7.53;3.10;;;21.10;99.90;;;;;;5068795;28;20492;-68
2023/10/04 07:52:26;;;;;;;10.57;3.83;;;21.20;99.90;;;;;;5067463;28;20063;-68
2023/10/04 07:54:53;;;;;;;6.45;3.00;;;21.20;99.90;;;;;;5067389;28;20044;-68
2023/10/04 07:57:21;;;;;;;12.23;3.42;;;21.10;99.90;;;;;;5069539;28;20040;-68
2023/10/04 07:59:49;;;;;;;10.52;3.50;;;21.40;99.90;;;;;;5067088;28;20055;-69
2023/10/04 08:02:17;;;;;;;12.07;3.83;;;21.60;99.90;;;;;;5068761;28;20059;-69
2023/10/04 08:04:48;;;;;;;6.45;2.88;;;21.60;99.90;;;;;;5081667;28;20504;-69
2023/10/04 08:07:18;;;;;;;10.48;3.60;;;21.50;99.90;;;;;;5064694;28;20389;-69
2023/10/04 08:09:47;;;;;;;16.20;4.50;;;21.70;99.90;;;;;;5068443;28;20097;-69
2023/10/04 08:12:15;;;;;;;9.80;3.95;;;21.60;99.90;;;;;;5087777;28;20044;-69
2023/10/04 08:14:42;;;;;;;11.10;3.30;;;21.90;99.90;;;;;;5069123;28;20063;-69
2023/10/04 08:17:08;;;;;;;9.82;3.58;;;22.10;99.90;;;;;;5067534;28;20044;-70
2023/10/04 08:19:35;;;;;;;14.65;3.95;;;21.60;99.90;;;;;;5058964;28;20056;-70
2023/10/04 08:22:04;;;;;;;11.65;3.33;;;20.90;99.90;;;;;;5067312;28;20055;-70
2023/10/04 08:24:31;;;;;;;8.85;3.40;;;20.90;99.90;;;;;;5066902;28;20076;-70
2023/10/04 08:27:01;;;;;;;11.77;3.85;;;20.90;99.90;;;;;;5051843;28;20453;-70
2023/10/04 08:29:28;;;;;;;9.73;3.78;;;21.30;99.90;;;;;;5050146;28;20052;-69
2023/10/04 08:31:55;;;;;;;9.32;3.50;;;21.90;99.90;;;;;;5051382;28;20075;-69
2023/10/04 08:34:23;;;;;;;7.63;3.25;;;22.40;99.90;;;;;;5049991;28;20056;-69
2023/10/04 08:36:51;;;;;;;11.35;3.65;;;22.90;99.90;;;;;;5052890;28;20090;-69
2023/10/04 08:39:18;;;;;;;9.25;3.83;;;23.20;99.90;;;;;;5049698;28;20054;-69
2023/10/04 08:41:48;;;;;;;11.23;4.18;;;22.70;99.90;;;;;;5067932;28;20055;-70
2023/10/04 08:44:16;;;;;;;9.82;3.80;;;22.40;99.90;;;;;;5050411;28;20048;-69
2023/10/04 08:46:47;;;;;;;10.77;4.00;;;22.70;99.90;;;;;;5054155;28;20048;-67
2023/10/04 08:49:16;;;;;;;14.63;4.15;;;23.10;99.90;;;;;;5046685;28;20044;-69
2023/10/04 08:51:51;;;;;;;8.73;3.97;;;22.90;99.90;;;;;;5053673;28;20048;-69
2023/10/04 08:54:23;;;;;;;6.75;2.95;;;23.60;99.90;;;;;;5070777;28;20055;-69
2023/10/04 08:56:57;;;;;;;9.77;4.25;;;23.50;99.90;;;;;;5052262;28;20068;-69
2023/10/04 08:59:28;;;;;;;8.13;3.35;;;23.60;99.90;;;;;;5048959;28;20060;-69
2023/10/04 09:01:57;;;;;;;9.82;4.18;;;24.60;99.90;;;;;;5047275;28;20524;-68
2023/10/04 09:04:24;;;;;;;14.90;3.92;;;24.70;99.70;;;;;;5051373;28;20049;-69
2023/10/04 09:06:52;;;;;;;11.15;4.28;;;24.90;98.50;;;;;;5047607;28;20045;-69
2023/10/04 09:09:20;;;;;;;8.55;3.55;;;25.00;98.70;;;;;;5049584;28;20407;-69
2023/10/04 09:11:47;;;;;;;9.48;4.22;;;25.30;97.90;;;;;;5047870;28;20045;-69
2023/10/04 09:14:15;;;;;;;9.80;3.60;;;25.20;98.40;;;;;;5049703;28;20051;-70
2023/10/04 09:16:43;;;;;;;11.57;3.35;;;25.80;97.90;;;;;;5050357;28;20044;-69
2023/10/04 09:19:17;;;;;;;9.57;3.40;;;25.80;97.20;;;;;;5055930;28;20051;-69
2023/10/04 09:21:44;;;;;;;9.95;3.67;;;25.80;96.70;;;;;;5089966;28;20048;-68
2023/10/04 09:24:14;;;;;;;11.02;3.75;;;26.30;96.10;;;;;;5088337;28;20077;-69
2023/10/04 09:26:50;;;;;;;8.73;3.58;;;26.10;96.30;;;;;;5069916;28;20048;-69
2023/10/04 09:29:29;;;;;;;9.20;3.30;;;26.20;96.10;;;;;;5067088;28;20041;-70
2023/10/04 09:31:57;;;;;;;10.65;3.38;;;25.70;95.30;;;;;;5069840;28;20098;-69
2023/10/04 09:34:24;;;;;;;12.15;4.05;;;25.70;96.60;;;;;;5066106;28;20774;-70
2023/10/04 09:36:52;;;;;;;11.40;3.80;;;25.90;96.60;;;;;;5070069;28;20154;-69
2023/10/04 09:39:24;;;;;;;12.00;3.83;;;25.10;96.20;;;;;;5068724;28;20135;-69
2023/10/04 09:41:54;;;;;;;9.73;3.67;;;24.40;96.60;;;;;;5070701;28;20569;-69
2023/10/04 09:44:24;;;;;;;8.63;3.13;;;23.50;97.20;;;;;;5091346;28;20461;-69
2023/10/04 09:46:54;;;;;;;;;;;22.40;98.20;;;;;;5071750;28;20135;-69
2023/10/04 09:49:24;;;;;;;12.57;3.85;;;22.20;98.80;;;;;;5074636;28;19924;-69
2023/10/04 09:51:53;;;;;;;8.32;3.65;;;23.10;98.80;;;;;;5069917;28;20056;-70
2023/10/04 09:54:20;;;;;;;10.02;3.75;;;23.70;98.00;;;;;;5091452;28;20499;-69
2023/10/04 09:56:47;;;;;;;10.48;3.85;;;24.00;97.50;;;;;;5088591;28;20043;-70
2023/10/04 09:59:19;;;;;;;8.15;3.17;;;23.70;96.80;;;;;;5091146;28;20376;-70
2023/10/04 10:01:52;;;;;;;8.90;3.90;;;23.70;96.10;;;;;;5071605;28;20051;-70
2023/10/04 10:04:23;;;;;;;9.43;3.90;;;23.40;96.90;;;;;;5068144;28;20044;-69
2023/10/04 10:07:00;;;;;;;10.50;3.65;;;22.60;97.60;;;;;;5065720;28;20048;-69
2023/10/04 10:09:30;;;;;;;11.93;4.38;;;23.10;97.40;;;;;;5065686;28;20067;-69
2023/10/04 10:11:59;;;;;;;;;;;22.20;98.30;;;;;;5071343;28;20070;-69
2023/10/04 10:14:28;;;;;;;8.93;4.10;;;22.50;97.60;;;;;;5070031;28;19927;-70
2023/10/04 10:16:56;;;;;;;10.30;3.47;;;22.10;97.90;;;;;;5070337;28;20052;-70
2023/10/04 10:19:26;;;;;;;11.60;3.70;;;22.20;98.40;;;;;;5061305;28;20052;-69
2023/10/04 10:22:11;;;;;;;14.02;4.30;;;21.70;98.60;;;;;;5050588;28;20071;-69
2023/10/04 10:24:48;;;;;;;12.18;4.38;;;21.80;98.50;;;;;;5045680;28;20044;-70
2023/10/04 10:27:19;;;;;;;11.05;3.72;;;22.10;98.40;;;;;;5051132;28;20036;-70
2023/10/04 10:29:47;;;;;;;11.32;3.53;;;22.30;98.10;;;;;;5043517;28;20060;-69
2023/10/04 10:32:17;;;;;;;7.60;3.53;;;21.70;98.30;;;;;;5050372;28;20055;-70
2023/10/04 10:34:45;;;;;;;9.60;3.50;;;21.60;98.40;;;;;;5051036;28;20049;-69
2023/10/04 10:37:22;;;;;;;9.82;3.83;;;21.40;98.80;;;;;;5050507;28;20102;-70
2023/10/04 10:39:51;;;;;;;8.07;3.42;;;21.40;99.50;;;;;;5050086;28;20084;-69
2023/10/04 10:42:18;;;;;;;8.13;3.20;;;20.90;99.90;;;;;;5051957;28;20059;-70
2023/10/04 10:44:46;;;;;;;9.27;3.83;;;20.70;99.90;;;;;;5051206;28;20052;-70
2023/10/04 10:47:19;;;;;;;10.32;4.07;;;20.20;99.90;;;;;;5051465;28;20044;-69
2023/10/04 10:50:12;;;;;;;7.75;3.35;;;19.90;99.90;;;;;;5048751;28;20548;-69
2023/10/04 10:52:41;;;;;;;8.82;4.15;;;19.80;99.90;;;;;;5046813;28;20057;-69
2023/10/04 10:55:14;;;;;;;10.32;3.45;;;19.40;99.90;;;;;;5053101;28;20157;-69
2023/10/04 10:57:44;;;;;;;8.43;4.05;;;19.10;99.90;;;;;;5046279;28;20041;-69
2023/10/04 11:00:18;;;;;;;10.43;3.92;;;19.00;99.90;;;;;;5052120;28;20053;-69
2023/10/04 11:02:46;;;;;;;11.48;4.43;;;18.90;99.90;;;;;;5044972;28;20072;-69
2023/10/04 11:05:16;;;;;;;9.60;3.40;;;18.80;99.90;;;;;;5047266;28;20052;-68
2023/10/04 11:07:44;;;;;;;9.45;3.60;;;18.70;99.90;;;;;;5048387;28;20130;-69
2023/10/04 11:10:15;;;;;;;10.45;4.10;;;18.50;99.90;;;;;;5050975;28;20118;-70
2023/10/04 11:12:43;;;;;;;10.95;4.45;;;18.40;99.90;;;;;;5050783;28;20059;-69
2023/10/04 11:15:11;;;;;;;12.77;5.28;;;18.30;99.90;;;;;;5054400;28;20106;-69
2023/10/04 11:17:39;;;;;;;9.77;3.70;;;18.30;99.90;;;;;;5053684;28;20040;-69
2023/10/04 11:20:09;;;;;;;14.05;3.78;;;18.50;99.90;;;;;;5067376;28;20060;-68
2023/10/04 11:22:38;;;;;;;7.80;4.28;;;18.50;99.90;;;;;;5074210;28;20079;-70
2023/10/04 11:25:07;;;;;;;17.55;3.90;;;18.50;99.90;;;;;;5069699;28;20044;-69
2023/10/04 11:27:40;;;;;;;11.95;3.90;;;18.50;99.90;;;;;;5057389;28;20499;-68
2023/10/04 11:30:10;;;;;;;9.23;3.95;;;18.50;99.90;;;;;;5074081;28;20483;-69
2023/10/04 11:32:39;;;;;;;8.60;3.90;;;18.80;99.90;;;;;;5073780;28;20048;-69
2023/10/04 11:35:08;;;;;;;14.80;4.55;;;19.00;99.90;;;;;;5090528;28;20502;-69
2023/10/04 11:37:41;;;;;;;10.18;3.38;;;19.20;99.90;;;;;;5073319;28;20499;-69
2023/10/04 11:40:11;;;;;;;14.57;5.10;;;19.40;99.90;;;;;;5091935;28;20040;-68
2023/10/04 11:42:38;;;;;;;12.75;4.22;;;19.50;99.90;;;;;;5070295;28;20050;-69
2023/10/04 11:45:17;;;;;;;13.10;4.55;;;19.40;99.90;;;;;;5073401;28;20052;-68
2023/10/04 11:47:45;;;;;;;13.27;4.53;;;19.10;99.90;;;;;;5069494;28;20056;-69
2023/10/04 11:50:13;;;;;;;10.88;4.20;;;18.80;99.90;;;;;;5073851;28;20052;-69
2023/10/04 11:52:42;;;;;;;12.93;5.07;;;18.80;99.90;;;;;;5073388;28;20040;-69
2023/10/04 11:55:24;;;;;;;10.07;4.03;;;18.80;99.90;;;;;;5072851;28;20531;-68
2023/10/04 11:57:52;;;;;;;12.43;4.40;;;18.90;99.90;;;;;;5067383;28;20059;-69
2023/10/04 12:00:21;;;;;;;8.05;3.20;;;19.00;99.90;;;;;;5063711;28;20144;-68
2023/10/04 12:02:48;;;;;;;10.00;3.30;;;19.00;99.90;;;;;;5059413;28;20052;-70
2023/10/04 12:05:16;;;;;;;9.82;3.67;;;19.10;99.90;;;;;;5061757;28;20401;-69
2023/10/04 12:07:44;;;;;;;12.57;4.13;;;19.20;99.90;;;;;;5068994;28;20104;-70
2023/10/04 12:10:13;;;;;;;13.00;4.28;;;19.30;99.90;;;;;;5070224;28;20055;-69
2023/10/04 12:12:42;;;;;;;8.95;3.53;;;19.50;99.90;;;;;;5075220;28;20052;-70
2023/10/04 12:15:10;;;;;;;10.40;3.78;;;19.60;99.90;;;;;;5072641;28;20122;-70
2023/10/04 12:17:37;;;;;;;11.02;3.60;;;19.50;99.90;;;;;;5071952;28;20048;-69
2023/10/04 12:20:06;;;;;;;10.95;3.65;;;19.40;99.90;;;;;;5054511;28;20099;-70
2023/10/04 12:22:34;;;;;;;10.82;3.53;;;19.30;99.90;;;;;;5067775;28;20511;-69
2023/10/04 12:25:04;;;;;;;7.65;3.50;;;19.30;99.90;;;;;;5073448;28;20611;-69
2023/10/04 12:27:31;;;;;;;9.98;2.75;;;19.20;99.90;;;;;;5054853;28;20064;-69
2023/10/04 12:29:58;;;;;;;13.10;3.60;;;19.10;99.90;;;;;;5056685;28;20045;-69
2023/10/04 12:32:26;;;;;;;10.20;3.10;;;19.10;99.90;;;;;;5054089;28;20450;-69
2023/10/04 12:34:52;;;;;;;11.25;3.00;;;19.10;99.90;;;;;;5056822;28;20060;-69
2023/10/04 12:37:19;;;;;;;15.85;3.58;;;19.40;99.90;;;;;;5057144;28;20056;-70
2023/10/04 12:39:46;;;;;;;8.20;2.70;;;19.60;99.90;;;;;;5057021;28;20049;-69
2023/10/04 12:42:14;;;;;;;9.98;3.80;;;19.80;99.90;;;;;;5056371;28;20492;-69
2023/10/04 12:44:41;;;;;;;6.95;2.58;;;20.00;99.90;;;;;;5055985;28;20056;-69
2023/10/04 12:47:09;;;;;;;8.98;3.03;;;20.40;99.90;;;;;;5057086;28;20404;-69
2023/10/04 12:49:37;;;;;;;7.78;2.65;;;20.70;99.90;;;;;;5056414;28;20071;-69